Time;durP1;ratioP1;P1;durP2;ratioP2;P2;SDS_P1;SDS_P2;PMS_P1;PMS_P2;Temp;Humidity;BMP_temperature;BMP_pressure;BME280_temperature;BME280_humidity;BME280_pressure;Samples;Min_cycle;Max_cycle;Signal;HPM_P1;HPM_P2
2024/05/05 00:01:17;;;;;;;2.80;2.08;;;15.70;53.70;;;11.46;87.47;95082.56;5269163;27;20009;-49
2024/05/05 00:03:43;;;;;;;2.65;1.70;;;15.70;53.70;;;11.41;87.75;95095.94;5275000;27;20026;-51
2024/05/05 00:06:09;;;;;;;4.53;2.78;;;15.70;53.70;;;11.45;87.47;95093.50;5261472;27;20024;-51
2024/05/05 00:08:34;;;;;;;3.28;1.92;;;15.80;53.70;;;11.49;87.38;95094.53;5266966;27;20010;-54
2024/05/05 00:11:00;;;;;;;2.30;1.58;;;15.80;53.70;;;11.55;85.53;95090.75;5266896;27;20085;-49
2024/05/05 00:13:26;;;;;;;2.20;1.40;;;15.80;53.80;;;11.75;84.07;95087.06;5259930;27;20600;-50
2024/05/05 00:15:52;;;;;;;1.52;1.40;;;15.80;53.80;;;11.95;82.52;95091.41;5272841;27;20011;-53
2024/05/05 00:18:18;;;;;;;2.15;1.75;;;15.90;53.90;;;12.12;81.97;95094.41;5266923;27;20001;-49
2024/05/05 00:20:43;;;;;;;1.88;1.50;;;16.00;53.90;;;12.26;80.94;95097.97;5274309;27;20370;-49
2024/05/05 00:23:09;;;;;;;2.58;1.20;;;16.10;53.80;;;12.41;79.92;95091.66;5271544;27;20359;-52
2024/05/05 00:25:35;;;;;;;2.45;1.20;;;16.20;53.80;;;12.56;78.88;95095.97;5266405;27;20003;-50
2024/05/05 00:28:01;;;;;;;1.55;1.33;;;16.40;53.70;;;12.67;78.08;95094.75;5268693;27;20056;-56
2024/05/05 00:30:26;;;;;;;2.15;1.13;;;16.40;53.50;;;12.74;77.97;95092.50;5267534;27;20021;-49
2024/05/05 00:32:52;;;;;;;2.40;1.13;;;16.50;53.40;;;12.83;77.72;95089.19;5275283;27;20021;-49
2024/05/05 00:35:18;;;;;;;1.30;1.20;;;16.60;53.30;;;12.95;77.25;95092.22;5264783;27;20108;-48
2024/05/05 00:37:44;;;;;;;4.25;1.38;;;16.70;53.30;;;13.05;77.17;95085.91;5271352;27;20010;-54
2024/05/05 00:40:10;;;;;;;2.03;1.08;;;16.80;53.20;;;13.15;76.73;95088.41;5263850;27;20054;-50
2024/05/05 00:42:38;;;;;;;2.42;0.95;;;16.90;53.10;;;13.26;76.31;95086.41;5269076;27;20019;-52
2024/05/05 00:45:11;;;;;;;1.70;1.20;;;17.00;53.10;;;13.33;75.96;95092.97;5275295;27;20084;-52
2024/05/05 00:47:41;;;;;;;1.10;0.90;;;17.10;53.00;;;13.39;75.70;95096.34;5264494;27;20053;-50
2024/05/05 00:50:16;;;;;;;1.10;0.98;;;17.20;52.90;;;13.43;75.78;95094.66;5268265;27;20103;-51
2024/05/05 00:52:52;;;;;;;0.88;0.88;;;17.30;52.80;;;13.48;75.44;95093.81;5263197;27;20003;-51
2024/05/05 00:55:21;;;;;;;2.05;0.90;;;17.30;52.70;;;13.51;75.37;95101.25;5291830;27;20355;-49
2024/05/05 00:57:49;;;;;;;2.95;1.00;;;17.40;52.50;;;13.54;75.62;95092.63;5282345;27;20025;-56
2024/05/05 01:00:16;;;;;;;1.65;0.80;;;17.40;52.50;;;13.57;75.42;95100.03;5282436;27;20016;-51
2024/05/05 01:02:42;;;;;;;0.60;0.60;;;17.40;52.40;;;13.61;75.31;95107.19;5282268;27;20456;-50
2024/05/05 01:05:08;;;;;;;2.72;0.70;;;17.50;52.40;;;13.63;75.19;95112.25;5273770;27;20021;-53
2024/05/05 01:07:35;;;;;;;1.08;0.80;;;17.50;52.30;;;13.64;75.44;95109.28;5280422;27;20457;-53
2024/05/05 01:10:01;;;;;;;1.63;0.80;;;17.60;52.30;;;13.61;75.90;95106.41;5273939;27;20384;-49
2024/05/05 01:12:27;;;;;;;1.00;0.70;;;17.60;52.20;;;13.60;76.96;95108.28;5276645;27;20021;-51
2024/05/05 01:14:53;;;;;;;2.03;1.02;;;17.60;52.30;;;13.54;77.47;95106.78;5287121;27;20010;-49
2024/05/05 01:17:18;;;;;;;0.80;0.80;;;17.60;52.30;;;13.51;77.62;95107.38;5272651;27;20015;-50
2024/05/05 01:19:44;;;;;;;2.92;0.82;;;17.60;52.30;;;13.55;78.08;95107.59;5288327;27;20010;-52
2024/05/05 01:22:10;;;;;;;1.48;0.80;;;17.60;52.50;;;13.53;77.99;95099.03;5279931;27;20016;-47
2024/05/05 01:24:36;;;;;;;1.52;1.10;;;17.60;52.40;;;13.51;78.06;95094.00;5271043;27;20042;-46
2024/05/05 01:27:02;;;;;;;1.10;0.90;;;17.60;52.50;;;13.50;77.94;95099.63;5293596;27;20009;-50
2024/05/05 01:29:27;;;;;;;1.75;1.17;;;17.60;52.50;;;13.50;78.49;95094.28;5268482;27;20015;-45
2024/05/05 01:31:54;;;;;;;3.67;1.10;;;17.60;52.40;;;13.42;78.71;95106.47;5291560;27;21295;-46
2024/05/05 01:34:20;;;;;;;1.17;0.80;;;17.60;52.50;;;13.39;79.23;95094.47;5286636;27;20041;-49
2024/05/05 01:36:46;;;;;;;1.58;1.05;;;17.50;52.60;;;13.37;79.70;95090.50;5277406;27;20006;-52
2024/05/05 01:39:11;;;;;;;1.65;0.93;;;17.50;52.60;;;13.30;80.15;95098.91;5278565;27;20019;-50
2024/05/05 01:41:37;;;;;;;1.60;1.20;;;17.50;52.80;;;13.30;80.80;95101.56;5273328;27;20002;-47
2024/05/05 01:44:03;;;;;;;1.48;0.95;;;17.50;53.00;;;13.29;81.10;95097.31;5276071;27;20005;-46
2024/05/05 01:46:29;;;;;;;2.38;0.90;;;17.50;53.00;;;13.25;81.50;95098.97;5280892;27;20391;-49
2024/05/05 01:48:55;;;;;;;1.35;1.00;;;17.40;53.00;;;13.23;82.13;95093.09;5284087;27;20460;-48
2024/05/05 01:51:20;;;;;;;3.08;0.63;;;17.40;53.10;;;13.14;82.88;95098.31;5272204;27;20122;-48
2024/05/05 01:53:46;;;;;;;0.60;0.60;;;17.40;53.40;;;13.06;83.67;95101.66;5275407;27;20552;-48
2024/05/05 01:56:12;;;;;;;2.50;1.05;;;17.40;53.70;;;13.04;84.23;95098.50;5273244;27;20005;-49
2024/05/05 01:58:38;;;;;;;2.50;1.10;;;17.40;53.90;;;13.06;84.88;95108.88;5272584;27;20007;-48
2024/05/05 02:01:04;;;;;;;1.90;0.90;;;17.30;54.00;;;13.00;85.30;95108.16;5280730;27;20061;-48
2024/05/05 02:03:29;;;;;;;1.35;0.80;;;17.20;54.20;;;13.01;85.63;95108.97;5269109;27;20002;-48
2024/05/05 02:05:55;;;;;;;2.92;0.70;;;17.20;54.20;;;12.99;85.85;95103.91;5276325;27;20001;-49
2024/05/05 02:08:21;;;;;;;2.40;0.80;;;17.20;54.30;;;12.91;86.95;95101.88;5266095;27;20013;-48
2024/05/05 02:10:52;;;;;;;0.77;0.73;;;17.20;54.50;;;12.86;87.69;95101.97;5270052;27;20046;-47
2024/05/05 02:13:18;;;;;;;3.60;0.82;;;17.10;54.70;;;12.82;88.31;95111.66;5270267;27;20074;-48
2024/05/05 02:15:43;;;;;;;0.98;0.60;;;17.10;54.80;;;12.77;88.65;95109.84;5285066;27;20103;-49
2024/05/05 02:18:09;;;;;;;0.88;0.80;;;17.10;55.00;;;12.72;89.35;95108.06;5262807;27;20063;-47
2024/05/05 02:20:35;;;;;;;0.60;0.60;;;17.10;55.20;;;12.70;89.77;95110.22;5274254;27;20001;-49
2024/05/05 02:23:01;;;;;;;0.70;0.70;;;17.00;55.40;;;12.66;90.22;95103.88;5274861;27;20021;-47
2024/05/05 02:25:26;;;;;;;0.70;0.70;;;17.00;55.50;;;12.67;90.19;95105.44;5265776;27;20079;-49
2024/05/05 02:27:52;;;;;;;1.25;1.00;;;16.90;56.20;;;12.67;90.79;95110.78;5283039;27;20017;-47
2024/05/05 02:30:18;;;;;;;2.53;0.82;;;16.90;55.70;;;12.66;90.99;95109.22;5276580;27;20087;-46
2024/05/05 02:32:44;;;;;;;0.88;0.70;;;16.90;56.00;;;12.63;91.22;95123.16;5273702;27;20462;-50
2024/05/05 02:35:10;;;;;;;1.00;0.80;;;16.90;56.20;;;12.62;91.65;95120.75;5280201;27;20521;-49
2024/05/05 02:37:41;;;;;;;1.48;0.88;;;16.80;56.20;;;12.58;92.32;95127.75;5261853;27;20003;-47
2024/05/05 02:40:08;;;;;;;0.95;0.77;;;16.80;56.50;;;12.60;93.77;95128.28;5285896;27;20009;-48
2024/05/05 02:42:35;;;;;;;1.48;0.80;;;16.80;56.50;;;12.57;95.24;95132.31;5261925;27;20013;-47
2024/05/05 02:45:01;;;;;;;2.60;1.08;;;16.70;56.70;;;12.58;95.76;95131.22;5283638;27;20021;-51
2024/05/05 02:47:27;;;;;;;1.52;0.85;;;16.70;56.90;;;12.56;96.89;95133.38;5244681;27;20001;-45
2024/05/05 02:49:52;;;;;;;1.45;1.27;;;16.70;57.00;;;12.51;97.89;95138.81;5282549;27;20010;-50
2024/05/05 02:52:18;;;;;;;2.10;0.98;;;16.60;57.20;;;12.49;98.43;95143.63;5280069;27;20414;-50
2024/05/05 02:54:47;;;;;;;1.17;0.60;;;16.50;57.30;;;12.48;99.03;95134.81;5273054;27;20018;-47
2024/05/05 02:57:12;;;;;;;1.33;0.82;;;16.50;57.50;;;12.48;99.48;95142.03;5284259;27;20013;-51
2024/05/05 02:59:38;;;;;;;0.98;0.80;;;16.50;57.60;;;12.46;99.94;95144.19;5279569;27;20083;-50
2024/05/05 03:02:04;;;;;;;1.42;0.90;;;16.40;57.60;;;12.45;99.97;95137.28;5293168;27;20283;-48
2024/05/05 03:04:30;;;;;;;1.20;0.70;;;16.40;57.80;;;12.43;99.62;95132.19;5279323;27;20536;-50
2024/05/05 03:06:56;;;;;;;1.17;0.82;;;16.40;57.90;;;12.40;100.00;95137.31;5285545;27;20041;-53
2024/05/05 03:09:21;;;;;;;1.05;0.98;;;16.40;58.00;;;12.37;100.00;95135.22;5284101;27;20055;-50
2024/05/05 03:11:47;;;;;;;1.02;0.70;;;16.40;58.20;;;12.33;100.00;95131.56;5281333;27;20005;-52
2024/05/05 03:14:15;;;;;;;0.95;0.85;;;16.40;58.30;;;12.29;100.00;95126.00;5279397;27;20009;-52
2024/05/05 03:16:41;;;;;;;1.27;0.90;;;16.40;58.40;;;12.24;100.00;95120.69;5288003;27;20024;-50
2024/05/05 03:19:07;;;;;;;0.88;0.88;;;16.40;59.20;;;12.21;100.00;95130.06;5274776;27;20053;-46
2024/05/05 03:21:41;;;;;;;1.95;1.05;;;16.30;58.60;;;12.16;100.00;95124.81;5288187;27;20454;-47
2024/05/05 03:24:06;;;;;;;0.85;0.82;;;16.30;58.80;;;12.05;100.00;95120.66;5281608;27;20016;-52
2024/05/05 03:26:32;;;;;;;0.93;0.80;;;16.30;58.90;;;12.01;100.00;95114.31;5283326;27;20006;-50
2024/05/05 03:28:58;;;;;;;2.10;0.88;;;16.20;59.00;;;11.98;100.00;95120.22;5284211;27;20007;-49
2024/05/05 03:31:24;;;;;;;1.00;0.90;;;16.20;59.10;;;11.94;100.00;95121.84;5278720;27;20014;-52
2024/05/05 03:33:50;;;;;;;2.35;1.13;;;16.20;59.20;;;11.90;100.00;95118.16;5293404;27;20010;-50
2024/05/05 03:36:16;;;;;;;1.52;1.02;;;16.10;59.30;;;11.87;100.00;95121.38;5289849;27;20484;-52
2024/05/05 03:38:42;;;;;;;3.53;1.23;;;16.10;60.10;;;11.85;100.00;95126.22;5279694;27;19999;-51
2024/05/05 03:41:07;;;;;;;0.82;0.70;;;16.10;59.70;;;11.80;100.00;95121.69;5289103;27;20387;-51
2024/05/05 03:43:33;;;;;;;2.33;0.93;;;16.00;59.80;;;11.80;100.00;95122.50;5277746;27;20014;-48
2024/05/05 03:45:59;;;;;;;0.80;0.80;;;16.00;59.90;;;11.82;100.00;95120.34;5279207;27;20009;-53
2024/05/05 03:48:25;;;;;;;1.58;0.98;;;16.00;60.00;;;11.81;100.00;95129.44;5284776;27;20016;-51
2024/05/05 03:50:51;;;;;;;2.42;1.00;;;16.00;60.10;;;11.81;100.00;95129.44;5285820;27;20005;-50
2024/05/05 03:53:16;;;;;;;0.80;0.70;;;16.00;60.20;;;11.81;100.00;95123.28;5270259;27;20508;-50
2024/05/05 03:55:42;;;;;;;1.55;0.98;;;16.00;60.30;;;11.84;100.00;95117.38;5291777;27;20024;-48
2024/05/05 03:58:08;;;;;;;1.42;0.80;;;16.00;60.40;;;11.85;100.00;95118.22;5268360;27;20384;-50
2024/05/05 04:00:34;;;;;;;1.38;0.70;;;16.00;60.50;;;11.79;100.00;95128.13;5276565;27;20017;-49
2024/05/05 04:02:59;;;;;;;3.20;0.80;;;16.00;60.50;;;11.78;100.00;95126.50;5282441;27;20200;-48
2024/05/05 04:05:25;;;;;;;3.00;0.82;;;15.90;60.50;;;11.75;100.00;95135.91;5272936;27;20005;-55
2024/05/05 04:07:51;;;;;;;1.00;0.70;;;15.90;60.70;;;11.60;100.00;95120.03;5276922;27;20085;-48
2024/05/05 04:10:17;;;;;;;2.33;1.00;;;15.90;60.80;;;11.62;100.00;95117.88;5283860;27;20009;-47
2024/05/05 04:12:42;;;;;;;1.38;0.80;;;15.90;60.90;;;11.61;100.00;95116.28;5272670;27;20147;-49
2024/05/05 04:15:08;;;;;;;0.80;0.80;;;15.90;61.10;;;11.57;100.00;95116.06;5283465;27;20789;-49
2024/05/05 04:17:34;;;;;;;0.93;0.90;;;15.80;61.20;;;11.55;100.00;95126.22;5267427;27;20251;-53
2024/05/05 04:20:00;;;;;;;3.17;1.17;;;15.80;61.40;;;11.56;100.00;95130.47;5287906;27;20348;-51
2024/05/05 04:22:26;;;;;;;1.42;1.10;;;15.80;61.50;;;11.56;100.00;95129.66;5274330;27;20010;-51
2024/05/05 04:24:52;;;;;;;0.88;0.88;;;15.80;61.70;;;11.56;100.00;95132.34;5273773;27;20122;-48
2024/05/05 04:27:17;;;;;;;3.97;1.00;;;15.80;61.80;;;11.58;100.00;95132.84;5277715;27;20472;-49
2024/05/05 04:29:43;;;;;;;1.13;0.98;;;15.80;61.90;;;11.56;100.00;95135.81;5285028;27;20023;-49
2024/05/05 04:32:09;;;;;;;1.13;0.90;;;15.80;62.10;;;11.58;100.00;95138.97;5284876;27;20010;-52
2024/05/05 04:34:35;;;;;;;0.80;0.80;;;15.90;63.00;;;11.59;100.00;95134.44;5274250;27;20083;-55
2024/05/05 04:37:00;;;;;;;1.42;1.10;;;15.90;62.30;;;11.60;100.00;95133.38;5276941;27;20556;-51
2024/05/05 04:39:26;;;;;;;1.98;0.90;;;15.90;62.30;;;11.62;100.00;95135.75;5266723;27;20494;-54
2024/05/05 04:41:52;;;;;;;1.00;0.90;;;15.90;62.40;;;11.63;100.00;95132.03;5280285;27;20022;-53
2024/05/05 04:44:18;;;;;;;1.85;0.85;;;15.90;62.40;;;11.63;100.00;95132.03;5294499;27;20021;-54
2024/05/05 04:46:44;;;;;;;3.65;1.00;;;15.90;62.50;;;11.66;100.00;95126.09;5269049;27;20021;-51
2024/05/05 04:49:09;;;;;;;2.05;0.90;;;16.00;62.50;;;11.69;100.00;95125.53;5280379;27;20601;-54
2024/05/05 04:51:35;;;;;;;1.40;1.10;;;16.00;62.60;;;11.71;100.00;95132.19;5273200;27;20006;-54
2024/05/05 04:54:01;;;;;;;1.05;0.88;;;16.00;62.60;;;11.72;100.00;95135.66;5285470;27;20360;-50
2024/05/05 04:56:27;;;;;;;1.10;1.00;;;16.00;62.70;;;11.72;100.00;95139.13;5266989;27;20010;-51
2024/05/05 04:58:53;;;;;;;1.83;0.85;;;16.00;63.60;;;11.77;100.00;95144.41;5284680;27;20332;-52
2024/05/05 05:01:18;;;;;;;1.55;1.00;;;16.10;62.80;;;11.84;100.00;95135.28;5272620;27;20016;-54
2024/05/05 05:03:44;;;;;;;1.42;1.00;;;16.20;62.90;;;11.88;100.00;95126.47;5280237;27;20353;-56
2024/05/05 05:06:13;;;;;;;1.42;0.90;;;16.20;62.80;;;11.88;100.00;95142.47;5265223;27;20009;-53
2024/05/05 05:08:39;;;;;;;2.67;1.27;;;16.30;63.00;;;11.89;100.00;95136.03;5275823;27;20001;-55
2024/05/05 05:11:05;;;;;;;1.60;1.13;;;16.30;62.80;;;11.93;100.00;95137.06;5274441;27;20080;-51
2024/05/05 05:13:31;;;;;;;1.67;1.20;;;16.40;62.80;;;12.01;100.00;95139.13;5284804;27;20001;-54
2024/05/05 05:15:57;;;;;;;1.35;1.00;;;16.40;62.70;;;12.06;100.00;95137.47;5258855;27;20005;-53
2024/05/05 05:18:23;;;;;;;1.10;1.00;;;16.50;62.70;;;12.10;100.00;95135.84;5279325;27;20019;-50
2024/05/05 05:20:49;;;;;;;1.20;1.10;;;16.50;62.60;;;12.09;100.00;95137.69;5269861;27;20338;-52
2024/05/05 05:23:14;;;;;;;2.95;1.00;;;16.60;62.70;;;12.09;100.00;95137.69;5267105;27;20012;-54
2024/05/05 05:25:40;;;;;;;1.33;1.10;;;16.60;62.60;;;12.14;100.00;95145.66;5276067;27;20014;-55
2024/05/05 05:28:09;;;;;;;2.47;1.17;;;16.60;62.60;;;12.20;100.00;95147.19;5264945;27;19997;-54
2024/05/05 05:30:36;;;;;;;1.80;1.55;;;16.70;62.80;;;12.29;100.00;95143.88;5267235;27;20025;-56
2024/05/05 05:33:04;;;;;;;7.00;4.07;;;16.70;63.40;;;12.35;100.00;95138.19;5260763;27;20001;-55
2024/05/05 05:35:30;;;;;;;11.00;3.83;;;16.80;62.60;;;12.42;100.00;95143.97;5268744;27;20006;-53
2024/05/05 05:37:56;;;;;;;7.95;2.22;;;16.90;62.50;;;12.48;100.00;95150.06;5269396;27;20018;-54
2024/05/05 05:40:22;;;;;;;4.15;1.38;;;17.00;62.40;;;12.53;100.00;95147.31;5267821;27;20678;-54
2024/05/05 05:42:48;;;;;;;1.73;0.95;;;17.10;62.30;;;12.63;100.00;95147.19;5269157;27;20005;-53
2024/05/05 05:45:14;;;;;;;2.10;0.98;;;17.30;62.10;;;12.75;100.00;95146.75;5267075;27;19997;-53
2024/05/05 05:47:44;;;;;;;1.23;0.98;;;17.50;61.90;;;12.91;100.00;95163.38;5279915;27;20025;-56
2024/05/05 05:50:10;;;;;;;1.90;1.13;;;17.70;61.80;;;13.07;100.00;95161.28;5259532;27;20027;-54
2024/05/05 05:52:43;;;;;;;1.35;0.98;;;17.80;61.70;;;13.13;100.00;95160.91;5271452;27;20009;-52
2024/05/05 05:55:09;;;;;;;1.52;0.90;;;17.90;61.70;;;13.17;100.00;95153.09;5269876;27;20351;-53
2024/05/05 05:57:35;;;;;;;4.35;0.80;;;17.80;61.40;;;13.09;100.00;95149.19;5267660;27;20046;-54
2024/05/05 06:00:01;;;;;;;1.02;0.90;;;17.80;61.30;;;13.07;100.00;95148.72;5274868;27;20052;-49
2024/05/05 06:02:27;;;;;;;4.75;1.50;;;17.70;61.20;;;13.00;100.00;95150.16;5269070;27;20006;-54
2024/05/05 06:04:53;;;;;;;1.20;0.90;;;17.70;61.30;;;13.02;100.00;95150.66;5278423;27;20388;-56
2024/05/05 06:07:19;;;;;;;1.20;0.80;;;17.70;61.30;;;12.99;100.00;95160.06;5264346;27;20006;-53
2024/05/05 06:09:45;;;;;;;0.70;0.70;;;17.70;61.30;;;13.03;100.00;95163.72;5268368;27;20424;-52
2024/05/05 06:12:11;;;;;;;1.13;0.88;;;17.70;61.30;;;13.07;100.00;95167.44;5276740;27;20009;-49
2024/05/05 06:14:36;;;;;;;0.73;0.73;;;17.70;61.30;;;13.02;100.00;95172.84;5265898;27;20007;-54
2024/05/05 06:17:02;;;;;;;1.05;1.00;;;17.70;61.30;;;13.08;100.00;95173.56;5269790;27;20054;-54
2024/05/05 06:19:28;;;;;;;2.83;1.10;;;17.70;61.50;;;13.07;100.00;95172.78;5264788;27;20018;-49
2024/05/05 06:21:54;;;;;;;1.30;1.00;;;17.70;61.60;;;13.07;100.00;95178.13;5285287;27;20027;-51
2024/05/05 06:24:20;;;;;;;1.02;0.93;;;17.70;61.60;;;12.97;100.00;95180.91;5272705;27;20001;-52
2024/05/05 06:26:45;;;;;;;1.63;1.00;;;17.60;61.70;;;12.91;100.00;95180.22;5279243;27;20003;-49
2024/05/05 06:29:11;;;;;;;1.10;1.00;;;17.60;61.80;;;12.98;100.00;95184.41;5264566;27;20046;-53
2024/05/05 06:31:37;;;;;;;2.55;1.20;;;17.50;61.80;;;13.00;100.00;95196.38;5275245;27;20014;-56
2024/05/05 06:34:03;;;;;;;2.30;1.10;;;17.50;62.00;;;13.01;100.00;95189.97;5288044;27;20013;-53
2024/05/05 06:36:29;;;;;;;1.55;1.00;;;17.50;62.20;;;13.04;100.00;95188.59;5271158;27;20006;-51
2024/05/05 06:38:55;;;;;;;1.30;1.20;;;17.60;62.30;;;13.09;100.00;95186.63;5291284;27;20012;-51
2024/05/05 06:41:21;;;;;;;2.60;1.15;;;17.70;62.30;;;13.20;100.00;95180.06;5267553;27;20406;-56
2024/05/05 06:43:47;;;;;;;2.55;1.30;;;17.90;62.30;;;13.22;100.00;95173.63;5279993;27;20007;-52
2024/05/05 06:46:12;;;;;;;2.17;1.08;;;17.90;62.20;;;13.32;100.00;95176.19;5277458;27;20020;-53
2024/05/05 06:48:38;;;;;;;1.77;0.95;;;18.00;62.20;;;13.41;100.00;95171.75;5259028;27;19999;-50
2024/05/05 06:51:05;;;;;;;1.20;1.00;;;18.00;62.30;;;13.51;100.00;95181.50;5276545;27;20002;-53
2024/05/05 06:53:31;;;;;;;1.85;1.13;;;18.10;62.50;;;13.56;100.00;95184.09;5270814;27;20025;-52
2024/05/05 06:55:57;;;;;;;1.95;1.23;;;18.20;62.30;;;13.58;100.00;95192.63;5292711;27;20243;-54
2024/05/05 06:58:22;;;;;;;1.42;1.23;;;18.30;62.30;;;13.47;100.00;95188.50;5278079;27;20558;-54
2024/05/05 07:00:48;;;;;;;1.90;1.20;;;18.30;62.00;;;13.49;100.00;95187.13;5282179;27;19998;-52
2024/05/05 07:03:14;;;;;;;1.10;1.00;;;18.40;61.80;;;13.52;100.00;95193.78;5271623;27;20371;-50
2024/05/05 07:05:40;;;;;;;1.15;1.05;;;18.40;61.70;;;13.52;100.00;95191.13;5269540;27;20011;-50
2024/05/05 07:08:06;;;;;;;1.52;1.02;;;18.30;61.50;;;13.56;100.00;95189.44;5277767;27;20011;-55
2024/05/05 07:10:32;;;;;;;1.85;1.17;;;18.40;61.40;;;13.56;100.00;95184.88;5259435;27;20084;-49
2024/05/05 07:12:58;;;;;;;1.08;1.00;;;18.40;61.20;;;13.60;100.00;95188.56;5284792;27;20001;-53
2024/05/05 07:15:23;;;;;;;1.25;1.08;;;18.50;61.20;;;13.57;100.00;95191.84;5282963;27;20067;-53
2024/05/05 07:17:49;;;;;;;1.40;1.30;;;18.50;61.00;;;13.60;100.00;95191.25;5277427;27;20373;-51
2024/05/05 07:20:15;;;;;;;1.15;1.00;;;18.60;60.90;;;13.71;100.00;95202.56;5280181;27;20005;-53
2024/05/05 07:22:41;;;;;;;1.52;1.08;;;18.60;60.90;;;13.79;100.00;95201.13;5268600;26;20014;-55
2024/05/05 07:25:06;;;;;;;1.10;1.00;;;18.80;60.80;;;13.84;100.00;95196.44;5282309;27;20002;-53
2024/05/05 07:27:32;;;;;;;1.85;1.13;;;18.80;60.40;;;13.83;100.00;95199.44;5267887;27;20393;-53
2024/05/05 07:29:58;;;;;;;1.40;1.00;;;18.90;60.10;;;13.82;100.00;95200.50;5284416;27;20083;-51
2024/05/05 07:32:24;;;;;;;2.15;1.13;;;18.80;59.90;;;13.71;100.00;95205.25;5266938;27;20024;-54
2024/05/05 07:34:50;;;;;;;1.20;1.10;;;18.80;59.80;;;13.69;100.00;95206.63;5281590;27;20025;-53
2024/05/05 07:37:16;;;;;;;2.20;1.23;;;18.70;59.70;;;13.64;100.00;95210.97;5284475;27;20017;-54
2024/05/05 07:39:41;;;;;;;1.30;1.20;;;18.60;59.70;;;13.74;100.00;95203.88;5285353;27;20521;-54
2024/05/05 07:42:07;;;;;;;1.38;1.25;;;18.50;59.80;;;13.64;100.00;95204.84;5270953;27;20009;-50
2024/05/05 07:44:33;;;;;;;2.25;1.85;;;18.50;59.90;;;13.63;100.00;95205.91;5282546;27;20016;-54
2024/05/05 07:46:59;;;;;;;2.00;1.20;;;18.40;59.90;;;13.70;100.00;95202.88;5284499;27;20384;-51
2024/05/05 07:49:25;;;;;;;1.50;1.40;;;18.40;60.10;;;13.58;100.00;95206.78;5276357;27;20087;-54
2024/05/05 07:51:54;;;;;;;3.10;1.30;;;18.40;60.10;;;13.69;100.00;95209.28;5283493;27;20009;-52
2024/05/05 07:54:20;;;;;;;1.50;1.40;;;18.40;60.30;;;13.81;100.00;95202.38;5266060;27;20020;-51
2024/05/05 07:56:46;;;;;;;3.13;1.38;;;18.50;60.40;;;13.90;100.00;95202.50;5277433;27;20485;-53
2024/05/05 07:59:12;;;;;;;2.67;1.52;;;18.60;60.50;;;13.95;100.00;95197.09;5279726;27;20001;-51
2024/05/05 08:01:38;;;;;;;1.33;1.20;;;18.80;60.40;;;14.06;100.00;95198.47;5281382;27;20361;-54
2024/05/05 08:04:04;;;;;;;2.78;1.40;;;18.90;60.20;;;14.14;100.00;95198.91;5284578;27;20005;-52
2024/05/05 08:06:30;;;;;;;1.65;1.50;;;19.00;60.10;;;14.22;100.00;95198.97;5261641;27;20005;-55
2024/05/05 08:08:55;;;;;;;1.45;1.35;;;19.10;59.90;;;14.23;100.00;95207.84;5289576;27;20024;-53
2024/05/05 08:11:21;;;;;;;2.55;1.27;;;19.20;59.70;;;14.10;100.00;95209.38;5278644;27;20041;-51
2024/05/05 08:13:48;;;;;;;2.22;1.60;;;19.10;59.60;;;14.17;100.00;95214.38;5279016;27;20005;-51
2024/05/05 08:16:14;;;;;;;2.10;1.60;;;19.10;59.60;;;14.11;100.00;95213.66;5249943;27;20529;-52
2024/05/05 08:18:41;;;;;;;2.05;1.60;;;19.10;60.10;;;14.07;100.00;95218.00;5278933;27;20007;-49
2024/05/05 08:21:07;;;;;;;3.75;1.60;;;19.10;59.50;;;14.09;100.00;95213.94;5286133;27;20017;-50
2024/05/05 08:23:36;;;;;;;2.72;1.63;;;19.10;59.70;;;14.14;100.00;95215.75;5282860;27;20502;-53
2024/05/05 08:26:02;;;;;;;1.63;1.45;;;19.20;59.90;;;14.34;100.00;95212.69;5280105;27;20169;-48
2024/05/05 08:28:28;;;;;;;2.35;1.15;;;19.50;59.90;;;14.20;100.00;95213.78;5278055;27;20005;-51
2024/05/05 08:30:53;;;;;;;1.52;1.13;;;19.60;59.50;;;14.08;100.00;95220.41;5289000;27;20005;-54
2024/05/05 08:33:19;;;;;;;1.15;1.05;;;19.60;59.10;;;14.12;100.00;95220.59;5284602;27;20017;-55
2024/05/05 08:35:46;;;;;;;2.58;1.27;;;19.60;59.00;;;14.22;100.00;95219.63;5272899;27;20007;-54
2024/05/05 08:38:12;;;;;;;2.45;1.02;;;19.70;59.00;;;14.26;100.00;95223.31;5287146;27;20024;-50
2024/05/05 08:40:38;;;;;;;1.45;1.20;;;19.60;58.80;;;14.20;100.00;95221.81;5262682;27;20482;-54
2024/05/05 08:43:06;;;;;;;1.83;1.20;;;19.50;58.80;;;14.15;100.00;95225.38;5274150;27;20013;-55
2024/05/05 08:45:43;;;;;;;2.10;1.30;;;19.50;59.00;;;14.03;100.00;95225.84;5253477;27;20013;-54
2024/05/05 08:48:10;;;;;;;1.25;1.00;;;19.40;59.00;;;13.97;100.00;95220.88;5244223;27;20438;-54
2024/05/05 08:50:40;;;;;;;1.88;1.00;;;19.30;58.80;;;13.94;100.00;95226.81;5279322;27;20492;-49
2024/05/05 08:53:06;;;;;;;1.40;1.25;;;19.40;58.80;;;14.10;100.00;95223.59;5274991;27;20010;-54
2024/05/05 08:55:32;;;;;;;1.55;1.45;;;19.50;58.60;;;14.44;100.00;95217.06;5287985;27;20352;-49
2024/05/05 08:57:58;;;;;;;2.00;1.40;;;19.80;58.70;;;14.70;100.00;95217.41;5259848;27;20390;-54
2024/05/05 09:00:25;;;;;;;2.97;1.63;;;20.10;58.50;;;14.96;100.00;95216.88;5282795;27;20421;-54
2024/05/05 09:02:52;;;;;;;1.35;1.25;;;20.40;58.30;;;15.26;99.66;95218.88;5266363;27;20009;-51
2024/05/05 09:05:43;;;;;;;1.73;1.25;;;20.80;57.80;;;15.61;95.68;95216.47;5282717;27;20462;-54
2024/05/05 09:08:15;;;;;;;1.88;1.30;;;21.40;57.10;;;16.07;97.23;95209.19;5285629;27;20425;-52
2024/05/05 09:10:42;;;;;;;1.70;1.40;;;21.80;56.80;;;16.51;92.29;95213.66;5294161;27;20020;-54
2024/05/05 09:13:10;;;;;;;1.52;1.40;;;22.40;56.30;;;17.04;85.54;95211.94;5289482;27;20235;-51
2024/05/05 09:15:37;;;;;;;1.95;1.75;;;23.00;55.20;;;17.41;88.01;95212.47;5291871;27;20415;-53
2024/05/05 09:18:05;;;;;;;1.70;1.60;;;23.60;54.20;;;17.52;80.19;95206.44;5284946;27;20026;-53
2024/05/05 09:20:30;;;;;;;1.50;1.40;;;24.20;52.60;;;17.99;79.83;95203.09;5287774;27;20556;-53
2024/05/05 09:22:57;;;;;;;1.20;1.10;;;24.50;51.90;;;17.85;75.69;95203.25;5268468;27;20458;-51
2024/05/05 09:25:23;;;;;;;1.75;1.60;;;24.70;50.90;;;18.10;76.93;95187.34;5281169;27;20009;-53
2024/05/05 09:27:50;;;;;;;2.55;1.67;;;24.80;50.00;;;18.24;75.66;95191.44;5291003;27;20064;-55
2024/05/05 09:30:16;;;;;;;1.40;1.30;;;24.80;49.80;;;18.42;76.47;95185.97;5287686;27;20020;-54
2024/05/05 09:32:43;;;;;;;1.40;1.30;;;24.80;49.70;;;17.90;73.36;95186.94;5287085;27;20006;-51
2024/05/05 09:35:10;;;;;;;1.17;1.02;;;24.80;48.80;;;17.75;77.69;95195.50;5281630;27;20560;-48
2024/05/05 09:37:38;;;;;;;2.03;1.35;;;24.70;49.00;;;18.09;76.34;95186.56;5270626;27;20616;-52
2024/05/05 09:40:05;;;;;;;1.38;1.25;;;24.60;48.40;;;18.41;75.89;95184.41;5300107;27;20005;-50
2024/05/05 09:42:32;;;;;;;2.60;1.38;;;24.70;48.90;;;18.43;75.30;95199.16;5269926;27;20010;-51
2024/05/05 09:44:58;;;;;;;2.00;1.10;;;24.80;48.70;;;18.45;70.67;95182.63;5293323;27;20016;-56
2024/05/05 09:47:31;;;;;;;2.13;1.20;;;24.80;47.90;;;18.49;72.43;95183.59;5277931;27;20014;-53
2024/05/05 09:50:05;;;;;;;;;;;24.90;47.90;;;18.37;72.52;95194.25;5297119;27;20009;-50
2024/05/05 09:52:46;;;;;;;2.42;1.00;;;24.80;47.80;;;18.41;71.34;95184.41;5275432;27;20296;-51
2024/05/05 09:55:50;;;;;;;1.83;0.80;;;24.80;47.10;;;18.35;69.63;95186.47;5278767;27;20020;-52
2024/05/05 09:58:34;;;;;;;0.80;0.80;;;24.80;46.70;;;17.96;68.36;95185.66;5257767;27;20001;-51
2024/05/05 10:01:01;;;;;;;1.38;1.08;;;24.90;45.40;;;17.99;69.89;95176.94;5268018;27;20367;-51
2024/05/05 10:03:28;;;;;;;1.38;0.95;;;25.00;44.70;;;18.43;68.91;95174.09;5275934;27;20005;-53
2024/05/05 10:05:54;;;;;;;2.15;1.20;;;25.20;44.80;;;18.96;65.79;95170.03;5249228;27;20010;-51
2024/05/05 10:08:20;;;;;;;2.10;1.23;;;25.70;44.30;;;19.60;64.92;95166.97;5275143;27;20078;-53
2024/05/05 10:10:46;;;;;;;1.05;1.00;;;26.30;44.00;;;19.98;60.61;95176.81;5254458;27;20018;-55
2024/05/05 10:13:11;;;;;;;0.90;0.90;;;26.80;43.30;;;19.52;60.39;95162.41;5286680;27;20005;-53